createdAt,value
2022-08-21T00:03:59.634Z,84.68
2022-08-21T00:09:08.142Z,84.76001
2022-08-21T00:14:16.473Z,84.93
2022-08-21T00:19:30.486Z,85.06
2022-08-21T00:24:37.288Z,85.42
2022-08-21T00:29:45.312Z,85.64
2022-08-21T00:34:53.029Z,85.88
2022-08-21T00:39:59.614Z,85.87001
2022-08-21T00:45:08.043Z,85.85
2022-08-21T00:50:14.792Z,86.02
2022-08-21T00:55:22.070Z,86.2
2022-08-21T01:00:28.485Z,86.35
2022-08-21T01:05:37.168Z,86.37
2022-08-21T01:10:43.683Z,86.55001
2022-08-21T01:15:52.069Z,86.49
2022-08-21T01:20:59.180Z,86.68
2022-08-21T01:26:06.479Z,86.98001
2022-08-21T01:31:14.359Z,87.24
2022-08-21T01:36:22.490Z,86.51
2022-08-21T01:41:33.398Z,86.04
2022-08-21T01:46:41.544Z,86.29001
2022-08-21T01:51:49.456Z,86.85
2022-08-21T01:56:57.524Z,87.24
2022-08-21T02:02:05.232Z,87.24
2022-08-21T02:07:11.608Z,87.11
2022-08-21T02:12:19.778Z,87.42
2022-08-21T02:17:27.453Z,87.52
2022-08-21T02:22:34.539Z,87.74
2022-08-21T02:27:41.049Z,87.98
2022-08-21T02:32:48.857Z,88.09
2022-08-21T02:37:56.483Z,88.22001
2022-08-21T02:43:05.054Z,87.80001
2022-08-21T02:48:13.117Z,87.80001
2022-08-21T02:53:22.092Z,87.72
2022-08-21T02:58:29.842Z,88.0
2022-08-21T03:03:37.746Z,88.23001
2022-08-21T03:08:45.349Z,88.32
2022-08-21T03:13:53.026Z,88.81
2022-08-21T03:19:00.057Z,88.28
2022-08-21T03:24:07.930Z,88.17
2022-08-21T03:29:15.736Z,87.94001
2022-08-21T03:34:22.948Z,87.83999
2022-08-21T03:39:30.123Z,88.11
2022-08-21T03:44:36.700Z,87.64
2022-08-21T03:49:44.539Z,87.14
2022-08-21T03:54:51.926Z,87.17
2022-08-21T03:59:58.935Z,86.84
2022-08-21T04:05:06.869Z,86.61
2022-08-21T04:10:14.606Z,85.36
2022-08-21T04:15:22.572Z,85.87001
2022-08-21T04:20:29.080Z,85.48
2022-08-21T04:25:38.090Z,85.52
2022-08-21T04:30:44.867Z,84.8
2022-08-21T04:35:52.203Z,85.02
2022-08-21T04:41:00.504Z,85.33999
2022-08-21T04:46:09.276Z,85.18001
2022-08-21T04:51:16.053Z,85.06
2022-08-21T04:56:24.480Z,85.54
2022-08-21T05:02:09.538Z,85.54
2022-08-21T05:07:17.318Z,85.1
2022-08-21T05:12:24.540Z,84.71
2022-08-21T05:17:32.379Z,84.89
2022-08-21T05:22:40.690Z,84.86
2022-08-21T05:27:48.057Z,84.7
2022-08-21T05:32:56.041Z,84.66001
2022-08-21T05:38:03.129Z,85.04001
2022-08-21T05:43:18.016Z,83.58001
2022-08-21T05:48:26.492Z,84.00001
2022-08-21T05:53:33.019Z,84.40001
2022-08-21T05:58:40.871Z,84.67
2022-08-21T06:03:49.115Z,84.33001
2022-08-21T06:08:56.573Z,84.67
2022-08-21T06:14:05.016Z,84.89
2022-08-21T06:19:13.305Z,84.94
2022-08-21T06:24:20.695Z,84.36
2022-08-21T06:29:28.964Z,85.13
2022-08-21T06:34:35.094Z,85.05
2022-08-21T06:39:42.938Z,85.01
2022-08-21T06:44:50.568Z,85.26
2022-08-21T06:49:57.916Z,84.6
2022-08-21T06:56:36.951Z,84.26001
2022-08-21T07:01:44.343Z,84.31
2022-08-21T07:06:53.491Z,84.35
2022-08-21T07:12:02.587Z,83.5
2022-08-21T07:17:12.831Z,83.12
2022-08-21T07:22:28.233Z,82.36
2022-08-21T07:27:40.827Z,82.44
2022-08-21T07:32:50.420Z,82.09
2022-08-21T07:37:59.772Z,81.98001
2022-08-21T07:49:15.804Z,82.04
2022-08-21T07:55:01.437Z,81.94
2022-08-21T08:00:09.438Z,81.07
2022-08-21T08:05:16.381Z,81.22001
2022-08-21T08:10:24.485Z,80.42
2022-08-21T08:15:31.419Z,79.67
2022-08-21T08:20:40.414Z,78.69
2022-08-21T08:25:47.760Z,78.1
2022-08-21T08:30:56.734Z,78.17
2022-08-21T08:36:05.630Z,77.96
2022-08-21T08:41:13.156Z,77.98
2022-08-21T08:46:20.388Z,78.21
2022-08-21T08:51:28.153Z,78.2
2022-08-21T08:56:36.064Z,78.97
2022-08-21T09:01:43.705Z,78.56
2022-08-21T09:06:51.927Z,78.3
2022-08-21T09:12:00.729Z,78.3
2022-08-21T09:17:09.332Z,77.75
2022-08-21T09:22:17.183Z,77.2
2022-08-21T09:27:24.379Z,78.5
2022-08-21T09:32:32.811Z,76.49
2022-08-21T09:37:39.413Z,77.13
2022-08-21T09:43:01.337Z,77.63
2022-08-21T09:48:10.447Z,76.04
2022-08-21T09:53:18.073Z,73.53
2022-08-21T09:58:26.465Z,72.5
2022-08-21T10:03:33.913Z,72.87
2022-08-21T10:08:42.143Z,69.03
2022-08-21T10:13:49.787Z,72.06
2022-08-21T10:18:57.765Z,72.38
2022-08-21T10:24:05.367Z,70.53
2022-08-21T10:29:14.140Z,70.34
2022-08-21T10:34:22.807Z,71.71
2022-08-21T10:39:30.117Z,70.08
2022-08-21T10:44:37.852Z,67.75
2022-08-21T10:49:46.024Z,68.44
2022-08-21T10:54:53.480Z,68.28
2022-08-21T11:00:01.448Z,71.05
2022-08-21T11:05:08.055Z,69.4
2022-08-21T11:10:16.007Z,67.5
2022-08-21T11:15:23.898Z,68.89
2022-08-21T11:20:31.620Z,69.36
2022-08-21T11:25:39.178Z,68.79
2022-08-21T11:30:46.612Z,67.14
2022-08-21T11:35:53.178Z,66.27
2022-08-21T11:41:00.554Z,67.24
2022-08-21T11:46:07.864Z,66.64
2022-08-21T11:51:14.779Z,64.91001
2022-08-21T11:56:21.814Z,65.7
2022-08-21T12:01:28.543Z,67.38
2022-08-21T12:06:36.098Z,66.38
2022-08-21T12:11:42.937Z,64.88
2022-08-21T12:16:51.085Z,65.78
2022-08-21T12:21:58.458Z,64.08
2022-08-21T12:27:07.529Z,65.56
2022-08-21T12:32:15.451Z,63.68
2022-08-21T12:37:23.644Z,65.11
2022-08-21T12:42:30.649Z,64.11
2022-08-21T12:47:38.489Z,64.68
2022-08-21T12:52:47.292Z,63.57
2022-08-21T12:57:55.664Z,64.43
2022-08-21T13:03:02.990Z,64.91001
2022-08-21T13:08:10.460Z,63.72
2022-08-21T13:13:18.013Z,65.13
2022-08-21T13:18:24.895Z,63.83
2022-08-21T13:23:32.768Z,63.14
2022-08-21T13:28:41.620Z,63.91
2022-08-21T13:33:49.071Z,61.78
2022-08-21T13:38:57.435Z,63.37
2022-08-21T13:44:04.790Z,64.57
2022-08-21T13:49:12.479Z,63.01
2022-08-21T13:54:19.740Z,64.11
2022-08-21T13:59:26.302Z,64.18
2022-08-21T14:04:34.311Z,64.01
2022-08-21T14:09:42.839Z,64.06
2022-08-21T14:14:51.545Z,64.14
2022-08-21T14:19:58.943Z,64.95
2022-08-21T14:25:13.818Z,65.71
2022-08-21T14:30:21.608Z,65.16
2022-08-21T14:35:29.528Z,65.28
2022-08-21T14:40:37.352Z,65.56
2022-08-21T14:45:43.927Z,64.6
2022-08-21T14:50:54.833Z,65.52
2022-08-21T14:56:02.121Z,65.53
2022-08-21T15:01:09.325Z,65.58
2022-08-21T15:06:15.889Z,65.48
2022-08-21T15:11:23.981Z,66.89
2022-08-21T15:16:32.106Z,66.08
2022-08-21T15:21:39.453Z,65.33
2022-08-21T15:26:48.339Z,65.64
2022-08-21T15:31:56.161Z,67.15
2022-08-21T15:37:04.747Z,67.3
2022-08-21T15:42:12.577Z,67.39
2022-08-21T15:47:19.931Z,67.67
2022-08-21T15:52:27.129Z,68.6
2022-08-21T15:57:34.893Z,68.28
2022-08-21T16:02:42.170Z,68.56
2022-08-21T16:07:50.182Z,69.44
2022-08-21T16:13:11.932Z,69.56
2022-08-21T16:18:20.752Z,70.56
2022-08-21T16:23:28.312Z,70.96
2022-08-21T16:28:35.418Z,71.84
2022-08-21T16:33:43.215Z,72.5
2022-08-21T16:38:52.760Z,73.28
2022-08-21T16:43:59.890Z,73.42
2022-08-21T16:49:07.445Z,74.18
2022-08-21T16:54:15.397Z,74.88
2022-08-21T16:59:23.600Z,75.39
2022-08-21T17:04:30.946Z,75.78
2022-08-21T17:09:38.618Z,76.04
2022-08-21T17:14:45.654Z,76.49
2022-08-21T17:19:53.175Z,76.87
2022-08-21T17:24:59.735Z,76.8
2022-08-21T17:30:07.635Z,76.89
2022-08-21T17:35:15.393Z,76.67
2022-08-21T17:40:22.615Z,77.79
2022-08-21T17:45:29.926Z,79.24
2022-08-21T17:50:38.017Z,79.86
2022-08-21T17:55:45.564Z,80.4
2022-08-21T18:00:53.841Z,80.72001
2022-08-21T18:06:01.136Z,81.46
2022-08-21T18:11:10.071Z,82.24
2022-08-21T18:16:17.684Z,82.9
2022-08-21T18:21:25.311Z,83.57
2022-08-21T18:26:33.675Z,84.31
2022-08-21T18:31:40.707Z,84.63
2022-08-21T18:36:48.241Z,84.73001
2022-08-21T18:41:55.439Z,85.08
2022-08-21T18:47:03.685Z,85.48
2022-08-21T18:52:10.821Z,85.45
2022-08-21T18:57:19.449Z,85.68
2022-08-21T19:02:28.348Z,85.64
2022-08-21T19:07:35.899Z,86.1
2022-08-21T19:12:42.566Z,86.44
2022-08-21T19:17:50.111Z,86.66
2022-08-21T19:22:56.852Z,86.8
2022-08-21T19:28:04.357Z,86.98001
2022-08-21T19:33:13.048Z,87.18
2022-08-21T19:38:20.664Z,87.23001
2022-08-21T19:43:28.274Z,87.25
2022-08-21T19:48:36.054Z,87.31
2022-08-21T19:53:43.387Z,87.42
2022-08-21T19:58:51.174Z,87.31
2022-08-21T20:03:58.602Z,87.28
2022-08-21T20:09:05.514Z,87.35
2022-08-21T20:14:13.423Z,87.46
2022-08-21T20:19:28.725Z,87.7
2022-08-21T20:24:36.060Z,88.04
2022-08-21T20:29:43.295Z,88.18
2022-08-21T20:34:50.454Z,88.42
2022-08-21T20:39:57.048Z,88.48001
2022-08-21T20:45:05.245Z,88.6
2022-08-21T20:50:12.054Z,88.7
2022-08-21T20:55:19.894Z,88.56
2022-08-21T21:00:26.455Z,88.5
2022-08-21T21:05:33.150Z,88.51001
2022-08-21T21:10:40.306Z,88.62
2022-08-21T21:15:47.480Z,88.6
2022-08-21T21:20:54.895Z,88.76
2022-08-21T21:26:01.924Z,88.72001
2022-08-21T21:31:09.100Z,88.9
2022-08-21T21:36:16.643Z,88.92
2022-08-21T21:41:24.781Z,89.06
2022-08-21T21:46:31.891Z,89.06
2022-08-21T21:51:39.096Z,89.17
2022-08-21T21:56:47.079Z,89.2
2022-08-21T22:01:55.348Z,89.11
2022-08-21T22:07:01.334Z,89.03
2022-08-21T22:12:50.148Z,89.03
2022-08-21T22:17:58.218Z,89.14001
2022-08-21T22:23:06.973Z,89.32
2022-08-21T22:28:15.036Z,89.38
2022-08-21T22:33:22.517Z,89.36
2022-08-21T22:38:31.137Z,89.16
2022-08-21T22:43:39.219Z,89.18
2022-08-21T22:48:46.318Z,89.07001
2022-08-21T22:53:53.495Z,89.00001
2022-08-21T22:59:01.303Z,89.14001
2022-08-21T23:04:09.172Z,89.11
2022-08-21T23:09:17.545Z,89.04
2022-08-21T23:14:26.011Z,89.01
2022-08-21T23:19:33.973Z,88.86001
2022-08-21T23:24:42.760Z,88.89
2022-08-21T23:29:49.014Z,88.93001
2022-08-21T23:34:57.284Z,88.89
2022-08-21T23:40:04.724Z,88.68
2022-08-21T23:45:12.482Z,88.52
2022-08-21T23:50:53.244Z,88.46
2022-08-21T23:50:53.598Z,88.46
2022-08-21T23:51:51.329Z,88.46
2022-08-21T23:56:57.174Z,88.53
